KCUH/CUH METAR and TAF weather

Enter ICAO airport designator
Station Type Date Time Source
KCUH METAR 2021/07/29 02:55 UTC NOAA

KCUH 290255Z AUTO 00000KT 10SM CLR 26/26 A3002 RMK AO2 T02630255


Station Type Date Time Source
KCUH Decoded METAR 2021/07/29 02:55 UTC NOAA

Cushing, Cushing Municipal Airport, OK, United States (KCUH) 35-56-59N 096-46-22W
Jul 28, 2021 - 10:55 PM EDT / 2021.07.29 0255 UTC
Wind: Calm:0
Visibility: 10 mile(s):0
Sky conditions: clear
Temperature: 79.3 F (26.3 C)
Dew Point: 77.9 F (25.5 C)
Relative Humidity: 95%
Pressure (altimeter): 30.02 in. Hg (1016 hPa)
ob: KCUH 290255Z AUTO 00000KT 10SM CLR 26/26 A3002 RMK AO2 T02630255
cycle: 3

Station Type Date Time Source
KCUH TAF UTC NOAA

Error!

Example: see airport list